createdAt,value
2022-11-17T00:01:30.598Z,519.70093
2022-11-17T00:06:32.388Z,547.92157
2022-11-17T00:11:34.294Z,547.92157
2022-11-17T00:16:36.318Z,542.05825
2022-11-17T00:21:37.962Z,519.70093
2022-11-17T00:26:39.476Z,530.66667
2022-11-17T00:31:41.324Z,530.66667
2022-11-17T00:36:42.759Z,519.70093
2022-11-17T00:41:44.244Z,519.70093
2022-11-17T00:46:45.819Z,536.30769
2022-11-17T00:51:47.279Z,536.30769
2022-11-17T00:56:48.952Z,530.66667
2022-11-17T01:01:50.872Z,514.37037
2022-11-17T01:06:52.660Z,514.37037
2022-11-17T01:11:54.181Z,514.37037
2022-11-17T01:16:55.970Z,479.65217
2022-11-17T01:21:57.539Z,440.77419
2022-11-17T01:26:59.030Z,421.51938
2022-11-17T01:32:00.878Z,414.22901
2022-11-17T01:37:02.714Z,403.70149
2022-11-17T01:42:04.687Z,393.63504
2022-11-17T01:52:17.017Z,393.63504
2022-11-17T01:57:18.556Z,393.63504
2022-11-17T02:02:20.504Z,393.63504
2022-11-17T02:07:22.424Z,393.63504
2022-11-17T02:12:23.999Z,396.94118
2022-11-17T02:17:25.478Z,396.94118
2022-11-17T02:22:27.192Z,380.87943
2022-11-17T02:27:29.121Z,377.80282
2022-11-17T02:32:31.069Z,360.21622
2022-11-17T02:37:32.971Z,357.42282
2022-11-17T02:42:34.464Z,360.21622
2022-11-17T02:47:36.563Z,360.21622
2022-11-17T02:52:38.639Z,360.21622
2022-11-17T02:57:40.336Z,360.21622
2022-11-17T03:02:42.124Z,360.21622
2022-11-17T03:07:44.011Z,363.04762
2022-11-17T03:12:45.488Z,365.91781
2022-11-17T03:17:47.006Z,365.91781
2022-11-17T03:22:48.462Z,365.91781
2022-11-17T03:27:50.231Z,360.21622
2022-11-17T03:32:51.870Z,363.04762
2022-11-17T03:37:53.463Z,360.21622
2022-11-17T03:42:55.165Z,354.66667
2022-11-17T03:47:56.984Z,349.26316
2022-11-17T03:52:58.838Z,351.94702
2022-11-17T03:58:00.705Z,360.21622
2022-11-17T04:03:02.902Z,374.76923
2022-11-17T04:08:04.965Z,371.77778
2022-11-17T04:13:06.845Z,396.94118
2022-11-17T04:18:08.702Z,403.70149
2022-11-17T04:23:10.647Z,417.84615
2022-11-17T04:28:12.467Z,425.25
2022-11-17T04:33:14.473Z,414.22901
2022-11-17T04:38:16.284Z,414.22901
2022-11-17T04:43:18.119Z,421.51938
2022-11-17T04:48:20.130Z,410.66667
2022-11-17T04:53:21.932Z,448.91803
2022-11-17T04:58:23.873Z,448.91803
2022-11-17T05:03:26.162Z,453.09091
2022-11-17T05:08:28.063Z,448.91803
2022-11-17T05:13:29.828Z,453.09091
2022-11-17T05:18:31.786Z,421.51938
2022-11-17T05:23:34.109Z,489.13274
2022-11-17T05:28:36.246Z,432.88889
2022-11-17T05:33:38.194Z,494
2022-11-17T05:38:39.791Z,457.33333
2022-11-17T05:43:41.541Z,514.37037
2022-11-17T05:48:43.036Z,519.70093
2022-11-17T05:53:44.771Z,579.05155
2022-11-17T05:58:46.440Z,599.31915
2022-11-17T06:03:48.536Z,652.04598
2022-11-17T06:08:50.442Z,652.04598
2022-11-17T06:13:52.145Z,636.13483
2022-11-17T06:18:53.945Z,660.27907
2022-11-17T06:23:56.112Z,636.13483
2022-11-17T06:28:57.887Z,668.70588
2022-11-17T06:33:59.809Z,686.16867
2022-11-17T06:39:01.885Z,686.16867
2022-11-17T06:44:03.990Z,695.21951
2022-11-17T06:49:05.874Z,744
2022-11-17T06:54:07.881Z,765.33333
2022-11-17T06:59:09.886Z,723.74684
2022-11-17T07:04:11.904Z,744
2022-11-17T07:09:13.755Z,668.70588
2022-11-17T07:14:15.564Z,776.43243
2022-11-17T07:19:17.688Z,714
2022-11-17T07:24:19.586Z,714
2022-11-17T07:29:21.640Z,723.74684
2022-11-17T07:34:23.674Z,733.74359
2022-11-17T07:39:25.543Z,765.33333
2022-11-17T07:44:27.349Z,714
2022-11-17T07:49:28.904Z,744
2022-11-17T07:54:30.914Z,704.49383
2022-11-17T07:59:32.926Z,744
2022-11-17T08:04:35.003Z,733.74359
2022-11-17T08:09:36.835Z,686.16867
2022-11-17T08:14:38.641Z,704.49383
2022-11-17T08:19:40.491Z,668.70588
2022-11-17T08:24:42.352Z,754.52632
2022-11-17T08:29:44.091Z,677.33333
2022-11-17T08:34:45.982Z,695.21951
2022-11-17T08:39:47.659Z,714
2022-11-17T08:44:49.380Z,704.49383
2022-11-17T08:49:50.959Z,695.21951
2022-11-17T08:54:52.799Z,733.74359
2022-11-17T08:59:54.415Z,686.16867
2022-11-17T09:04:56.406Z,704.49383
2022-11-17T09:09:58.420Z,677.33333
2022-11-17T09:15:00.420Z,723.74684
2022-11-17T09:20:01.992Z,765.33333
2022-11-17T09:25:07.473Z,714
2022-11-17T09:30:12.022Z,714
2022-11-17T09:35:13.768Z,704.49383
2022-11-17T09:40:15.737Z,733.74359
2022-11-17T09:45:17.183Z,695.21951
2022-11-17T09:50:19.334Z,704.49383
2022-11-17T09:55:21.697Z,723.74684
2022-11-17T10:00:23.352Z,754.52632
2022-11-17T10:05:25.727Z,754.52632
2022-11-17T10:10:27.445Z,824
2022-11-17T10:15:29.232Z,754.52632
2022-11-17T10:20:30.988Z,744
2022-11-17T10:25:32.635Z,776.43243
2022-11-17T10:30:34.855Z,799.55556
2022-11-17T10:35:36.474Z,776.43243
2022-11-17T10:40:38.097Z,849.88235
2022-11-17T10:45:39.652Z,824
2022-11-17T10:50:41.489Z,787.83562
2022-11-17T10:55:43.198Z,765.33333
2022-11-17T11:00:45.413Z,668.70588
2022-11-17T11:05:47.309Z,776.43243
2022-11-17T11:10:49.205Z,811.60563
2022-11-17T11:15:51.200Z,733.74359
2022-11-17T11:20:53.017Z,695.21951
2022-11-17T11:25:54.825Z,704.49383
2022-11-17T11:30:56.430Z,744
2022-11-17T11:35:58.542Z,776.43243
2022-11-17T11:41:00.681Z,787.83562
2022-11-17T11:46:02.481Z,704.49383
2022-11-17T11:51:04.337Z,799.55556
2022-11-17T11:56:06.629Z,836.75362
2022-11-17T12:01:08.769Z,811.60563
2022-11-17T12:06:10.591Z,765.33333
2022-11-17T12:11:12.574Z,787.83562
2022-11-17T12:16:14.366Z,824
2022-11-17T12:21:16.293Z,836.75362
2022-11-17T12:26:17.924Z,824
2022-11-17T12:31:19.864Z,733.74359
2022-11-17T12:36:25.521Z,824
2022-11-17T12:41:32.104Z,891.69231
2022-11-17T12:46:33.591Z,906.5
2022-11-17T12:51:35.511Z,849.88235
2022-11-17T12:56:37.327Z,863.40299
2022-11-17T13:01:39.774Z,824
2022-11-17T13:06:41.880Z,636.13483
2022-11-17T13:11:43.508Z,811.60563
2022-11-17T13:16:45.020Z,836.75362
2022-11-17T13:21:46.517Z,765.33333
2022-11-17T13:26:48.134Z,765.33333
2022-11-17T13:31:49.611Z,836.75362
2022-11-17T13:36:51.262Z,811.60563
2022-11-17T13:41:52.979Z,836.75362
2022-11-17T13:46:54.552Z,824
2022-11-17T13:51:56.501Z,799.55556
2022-11-17T13:56:58.241Z,824
2022-11-17T14:01:59.970Z,799.55556
2022-11-17T14:07:02.152Z,811.60563
2022-11-17T14:12:03.990Z,811.60563
2022-11-17T14:17:05.649Z,776.43243
2022-11-17T14:22:07.572Z,776.43243
2022-11-17T14:27:09.301Z,765.33333
2022-11-17T14:32:11.175Z,704.49383
2022-11-17T14:37:13.175Z,660.27907
2022-11-17T14:42:15.007Z,660.27907
2022-11-17T14:47:16.892Z,644
2022-11-17T14:52:18.668Z,489.13274
2022-11-17T14:57:20.732Z,636.13483
2022-11-17T15:02:22.584Z,628.44444
2022-11-17T15:07:24.709Z,668.70588
2022-11-17T15:12:26.680Z,652.04598
2022-11-17T15:17:28.685Z,628.44444
2022-11-17T15:22:30.636Z,613.56522
2022-11-17T15:27:32.376Z,613.56522
2022-11-17T15:32:34.164Z,636.13483
2022-11-17T15:37:36.369Z,613.56522
2022-11-17T15:42:38.391Z,628.44444
2022-11-17T15:47:40.370Z,714
2022-11-17T15:53:02.859Z,744
2022-11-17T15:58:05.195Z,704.49383
2022-11-17T16:03:06.992Z,695.21951
2022-11-17T16:08:08.772Z,744
2022-11-17T16:13:10.604Z,714
2022-11-17T16:18:12.439Z,776.43243
2022-11-17T16:23:14.351Z,776.43243
2022-11-17T16:28:16.441Z,714
2022-11-17T16:33:18.250Z,765.33333
2022-11-17T16:38:20.429Z,668.70588
2022-11-17T16:43:22.215Z,799.55556
2022-11-17T16:48:24.099Z,776.43243
2022-11-17T16:53:26.160Z,714
2022-11-17T16:58:27.906Z,754.52632
2022-11-17T17:03:29.369Z,494
2022-11-17T17:08:31.002Z,484.35088
2022-11-17T17:13:32.733Z,547.92157
2022-11-17T17:18:34.494Z,560
2022-11-17T17:23:36.264Z,530.66667
2022-11-17T17:28:38.057Z,536.30769
2022-11-17T17:33:39.853Z,560
2022-11-17T17:38:42.043Z,585.66667
2022-11-17T17:43:43.868Z,613.56522
2022-11-17T17:48:45.344Z,572.57143
2022-11-17T17:53:46.846Z,489.13274
2022-11-17T17:58:48.529Z,489.13274
2022-11-17T18:03:50.291Z,509.13761
2022-11-17T18:08:52.207Z,484.35088
2022-11-17T18:13:53.837Z,479.65217
2022-11-17T18:18:55.483Z,457.33333
2022-11-17T18:23:57.188Z,457.33333
2022-11-17T18:28:59.074Z,457.33333
2022-11-17T18:34:00.624Z,410.66667
2022-11-17T18:39:02.735Z,410.66667
2022-11-17T18:44:04.884Z,461.64706
2022-11-17T18:49:06.792Z,484.35088
2022-11-17T18:54:08.708Z,457.33333
2022-11-17T18:59:10.621Z,436.8
2022-11-17T19:04:12.432Z,421.51938
2022-11-17T19:09:15.043Z,475.03448
2022-11-17T19:14:17.044Z,519.70093
2022-11-17T19:19:19.393Z,498.95495
2022-11-17T19:24:21.439Z,547.92157
2022-11-17T19:29:23.748Z,484.35088
2022-11-17T19:34:25.880Z,498.95495
2022-11-17T19:39:27.914Z,489.13274
2022-11-17T19:44:29.716Z,504
2022-11-17T19:49:31.549Z,509.13761
2022-11-17T19:54:33.322Z,484.35088
2022-11-17T19:59:35.362Z,553.90099
2022-11-17T20:04:37.296Z,566.22222
2022-11-17T20:09:39.222Z,536.30769
2022-11-17T20:14:40.967Z,553.90099
2022-11-17T20:19:42.683Z,536.30769
2022-11-17T20:24:44.271Z,525.13208
2022-11-17T20:29:45.911Z,504
2022-11-17T20:34:47.354Z,484.35088
2022-11-17T20:39:49.002Z,475.03448
2022-11-17T20:44:50.508Z,475.03448
2022-11-17T20:49:52.148Z,475.03448
2022-11-17T20:54:53.839Z,470.49573
2022-11-17T20:59:55.803Z,461.64706
2022-11-17T21:04:57.311Z,461.64706
2022-11-17T21:09:59.245Z,457.33333
2022-11-17T21:15:01.165Z,453.09091
2022-11-17T21:20:02.990Z,444.81301
2022-11-17T21:25:04.821Z,448.91803
2022-11-17T21:30:06.514Z,436.8
2022-11-17T21:35:08.522Z,440.77419
2022-11-17T21:40:10.460Z,440.77419
2022-11-17T21:45:12.389Z,432.88889
2022-11-17T21:50:14.205Z,425.25
2022-11-17T21:55:15.970Z,403.70149
2022-11-17T22:00:18.007Z,390.37681
2022-11-17T22:05:19.794Z,377.80282
2022-11-17T22:10:22.400Z,371.77778
2022-11-17T22:15:24.232Z,368.82759
2022-11-17T22:20:27.553Z,363.04762
2022-11-17T22:25:44.905Z,365.91781
2022-11-17T22:30:47.356Z,363.04762
2022-11-17T22:35:49.331Z,374.76923
2022-11-17T22:40:50.953Z,407.15789
2022-11-17T22:45:52.609Z,470.49573
2022-11-17T22:50:54.102Z,504
2022-11-17T22:55:55.703Z,514.37037
2022-11-17T23:00:57.609Z,514.37037
2022-11-17T23:05:59.306Z,514.37037
2022-11-17T23:11:29.479Z,530.66667
2022-11-17T23:16:37.483Z,530.66667
2022-11-17T23:21:39.452Z,547.92157
2022-11-17T23:26:41.290Z,636.13483
2022-11-17T23:31:43.240Z,668.70588
2022-11-17T23:36:45.156Z,668.70588
2022-11-17T23:41:46.926Z,677.33333
2022-11-17T23:46:48.728Z,660.27907
2022-11-17T23:51:50.308Z,686.16867
2022-11-17T23:56:51.889Z,660.27907
